Main page
METAR-TAF:

METAR-TAF

Airports :

Tampa Executive Airport

Tampa, Florida, United States

latitude: 28-00-50N, longitude: 082-20-43W, elevation: 23 ft

Current weather observation

The report was made 26 minutes ago, at 04:35 UTC
Wind 3 mph from the East/Southeast
Temperature 77°F
Humidity 74%
Pressure 29.98 in. Hg
Visibility: 10 miles
Clear sky

METAR: KVDF 240435Z AUTO 11003KT 10SM CLR 25/20 A2998 RMK AO2

Time: 01:01 (05:01 UTC)


TAF: missing

Weather observations and forecasts of more than 4000 airports (METAR and TAF reports).

The available stations are represented by yellow and red dots on the map.

Hover mouse over dot to see the name of the station.

Then click to see weather observations and forecasts.

To change the map : click on the green buttons with a black cross to zoom in, on the green button with a dash to zoom out, or on the green arrows for adjacent maps.


METAR-TAF: